createdAt,value
2018-07-29T00:00:42.542Z,53.90
2018-07-29T00:01:44.806Z,54.20
2018-07-29T00:02:47.063Z,54.40
2018-07-29T00:03:49.278Z,54.50
2018-07-29T00:04:51.505Z,54.40
2018-07-29T00:05:53.782Z,54.20
2018-07-29T00:06:56.017Z,54.40
2018-07-29T00:07:58.248Z,54.60
2018-07-29T00:09:00.510Z,54.70
2018-07-29T00:10:02.785Z,54.50
2018-07-29T00:11:05.035Z,54.50
2018-07-29T00:12:07.323Z,54.50
2018-07-29T00:13:09.934Z,54.50
2018-07-29T00:14:12.187Z,54.50
2018-07-29T00:15:14.467Z,54.60
2018-07-29T00:16:16.709Z,54.60
2018-07-29T00:17:18.953Z,54.70
2018-07-29T00:18:21.181Z,54.80
2018-07-29T00:20:25.721Z,55.00
2018-07-29T00:21:27.954Z,55.20
2018-07-29T00:22:30.174Z,55.30
2018-07-29T00:23:32.378Z,55.60
2018-07-29T00:24:34.613Z,55.60
2018-07-29T00:25:36.849Z,56.00
2018-07-29T00:26:40.213Z,56.20
2018-07-29T00:27:42.417Z,56.20
2018-07-29T00:28:44.646Z,56.30
2018-07-29T00:29:46.902Z,56.60
2018-07-29T00:30:49.146Z,56.70
2018-07-29T00:31:51.398Z,57.90
2018-07-29T00:32:53.641Z,57.30
2018-07-29T00:33:55.850Z,57.30
2018-07-29T00:34:58.221Z,57.50
2018-07-29T00:36:00.474Z,57.70
2018-07-29T00:37:02.754Z,57.70
2018-07-29T00:38:04.973Z,57.70
2018-07-29T00:39:07.973Z,57.60
2018-07-29T00:40:10.183Z,57.70
2018-07-29T00:42:14.679Z,57.90
2018-07-29T00:43:16.898Z,57.60
2018-07-29T00:45:21.347Z,57.60
2018-07-29T00:46:23.573Z,57.60
2018-07-29T00:47:25.807Z,57.70
2018-07-29T00:48:28.025Z,57.70
2018-07-29T00:49:30.253Z,57.60
2018-07-29T00:50:32.471Z,57.70
2018-07-29T00:51:34.711Z,57.70
2018-07-29T00:52:36.941Z,57.80
2018-07-29T00:54:41.422Z,58.10
2018-07-29T00:56:45.929Z,58.10
2018-07-29T00:57:48.192Z,58.20
2018-07-29T00:59:52.634Z,58.20
2018-07-29T01:00:54.885Z,58.20
2018-07-29T01:01:57.105Z,59.00
2018-07-29T01:02:59.337Z,58.30
2018-07-29T01:04:01.559Z,58.50
2018-07-29T01:05:04.226Z,58.50
2018-07-29T01:06:06.614Z,58.40
2018-07-29T01:07:08.860Z,58.40
2018-07-29T01:08:11.063Z,58.40
2018-07-29T01:09:13.386Z,58.40
2018-07-29T01:10:15.673Z,58.40
2018-07-29T01:11:17.853Z,58.40
2018-07-29T01:12:20.087Z,58.40
2018-07-29T01:13:22.297Z,58.70
2018-07-29T01:14:24.535Z,58.80
2018-07-29T01:15:26.869Z,58.70
2018-07-29T01:16:29.121Z,58.70
2018-07-29T01:17:31.325Z,58.70
2018-07-29T01:18:33.535Z,58.70
2018-07-29T01:19:35.753Z,58.80
2018-07-29T01:20:37.998Z,58.80
2018-07-29T01:21:40.219Z,58.60
2018-07-29T01:22:42.453Z,58.50
2018-07-29T01:23:44.659Z,58.60
2018-07-29T01:24:46.894Z,59.30
2018-07-29T01:25:49.090Z,58.60
2018-07-29T01:26:51.341Z,58.60
2018-07-29T01:27:53.569Z,58.70
2018-07-29T01:28:55.781Z,58.70
2018-07-29T01:29:58.066Z,58.90
2018-07-29T01:31:00.292Z,58.80
2018-07-29T01:32:02.532Z,58.70
2018-07-29T01:33:04.770Z,58.70
2018-07-29T01:35:15.905Z,58.50
2018-07-29T01:36:18.154Z,58.40
2018-07-29T01:37:20.365Z,58.40
2018-07-29T01:38:22.567Z,58.40
2018-07-29T01:39:24.801Z,58.40
2018-07-29T01:40:27.028Z,58.40
2018-07-29T01:41:29.234Z,58.50
2018-07-29T01:42:31.458Z,58.50
2018-07-29T01:43:33.697Z,58.50
2018-07-29T01:44:35.892Z,58.70
2018-07-29T01:45:38.124Z,58.80
2018-07-29T01:46:40.333Z,59.00
2018-07-29T01:47:42.529Z,59.00
2018-07-29T01:48:44.750Z,59.00
2018-07-29T01:49:46.952Z,59.20
2018-07-29T01:50:49.202Z,59.20
2018-07-29T01:51:51.430Z,59.10
2018-07-29T01:52:53.650Z,59.20
2018-07-29T01:53:55.866Z,59.50
2018-07-29T01:54:58.083Z,59.50
2018-07-29T01:56:00.298Z,59.50
2018-07-29T01:57:02.509Z,59.70
2018-07-29T01:58:04.760Z,59.90
2018-07-29T01:59:06.985Z,59.90
2018-07-29T02:00:09.210Z,59.80
2018-07-29T02:01:11.442Z,59.80
2018-07-29T02:02:15.433Z,59.70
2018-07-29T02:03:17.637Z,59.80
2018-07-29T02:05:22.111Z,59.80
2018-07-29T02:06:24.354Z,59.80
2018-07-29T02:07:26.565Z,59.90
2018-07-29T02:08:28.774Z,60.00
2018-07-29T02:09:30.982Z,60.10
2018-07-29T02:10:33.190Z,60.10
2018-07-29T02:11:35.446Z,60.00
2018-07-29T02:12:37.661Z,60.00
2018-07-29T02:14:42.076Z,59.90
2018-07-29T02:16:46.521Z,60.30
2018-07-29T02:17:48.738Z,59.40
2018-07-29T02:18:50.956Z,59.60
2018-07-29T02:19:53.174Z,59.60
2018-07-29T02:20:55.389Z,59.70
2018-07-29T02:21:57.633Z,59.50
2018-07-29T02:22:59.910Z,59.30
2018-07-29T02:24:02.112Z,59.00
2018-07-29T02:26:06.602Z,58.80
2018-07-29T02:27:08.822Z,58.90
2018-07-29T02:28:11.075Z,59.20
2018-07-29T02:29:13.280Z,59.10
2018-07-29T02:30:15.466Z,58.90
2018-07-29T02:31:17.674Z,58.80
2018-07-29T02:32:19.905Z,59.00
2018-07-29T02:33:22.171Z,58.90
2018-07-29T02:34:24.377Z,59.10
2018-07-29T02:35:26.609Z,59.00
2018-07-29T02:36:28.822Z,59.00
2018-07-29T02:37:31.029Z,59.00
2018-07-29T02:38:33.230Z,59.50
2018-07-29T02:39:35.463Z,59.40
2018-07-29T02:40:37.696Z,59.50
2018-07-29T02:41:39.986Z,59.40
2018-07-29T02:42:42.233Z,59.50
2018-07-29T02:43:44.457Z,59.60
2018-07-29T02:44:46.686Z,59.50
2018-07-29T02:45:48.937Z,59.60
2018-07-29T02:46:51.154Z,59.50
2018-07-29T02:47:53.393Z,59.50
2018-07-29T02:48:55.622Z,59.50
2018-07-29T02:49:57.887Z,59.60
2018-07-29T02:51:00.094Z,59.70
2018-07-29T02:52:02.366Z,59.70
2018-07-29T02:53:04.647Z,59.70
2018-07-29T02:54:06.881Z,59.70
2018-07-29T02:55:09.083Z,59.70
2018-07-29T02:56:11.306Z,60.00
2018-07-29T02:57:13.526Z,60.00
2018-07-29T02:58:15.747Z,60.00
2018-07-29T02:59:17.989Z,60.00
2018-07-29T03:00:20.182Z,60.00
2018-07-29T03:02:24.650Z,61.10
2018-07-29T03:03:26.898Z,60.20
2018-07-29T03:04:29.114Z,61.10
2018-07-29T03:05:31.309Z,60.40
2018-07-29T03:06:33.565Z,60.30
2018-07-29T03:07:35.766Z,60.40
2018-07-29T03:08:37.986Z,60.60
2018-07-29T03:09:40.198Z,60.90
2018-07-29T03:10:42.441Z,61.00
2018-07-29T03:11:44.663Z,60.90
2018-07-29T03:12:46.878Z,61.00
2018-07-29T03:13:49.098Z,60.70
2018-07-29T03:14:51.294Z,61.20
2018-07-29T03:15:53.497Z,61.20
2018-07-29T03:16:55.752Z,61.20
2018-07-29T03:17:58.066Z,61.10
2018-07-29T03:19:00.221Z,61.90
2018-07-29T03:20:02.466Z,61.20
2018-07-29T03:21:04.713Z,61.20
2018-07-29T03:22:06.924Z,61.20
2018-07-29T03:23:09.165Z,61.20
2018-07-29T03:24:11.370Z,61.20
2018-07-29T03:25:13.594Z,61.20
2018-07-29T03:26:15.805Z,61.20
2018-07-29T03:27:18.005Z,61.20
2018-07-29T03:28:20.258Z,61.50
2018-07-29T03:30:24.765Z,61.80
2018-07-29T03:31:27.038Z,61.90
2018-07-29T03:32:29.245Z,61.80
2018-07-29T03:33:31.498Z,61.80
2018-07-29T03:34:33.740Z,61.80
2018-07-29T03:35:35.961Z,61.90
2018-07-29T03:36:38.169Z,61.70
2018-07-29T03:37:40.409Z,61.70
2018-07-29T03:38:42.710Z,61.70
2018-07-29T03:39:44.915Z,61.40
2018-07-29T03:40:47.110Z,61.10
2018-07-29T03:41:49.338Z,61.10
2018-07-29T03:42:51.575Z,61.70
2018-07-29T03:43:53.810Z,61.70
2018-07-29T03:44:56.038Z,61.90
2018-07-29T03:45:58.251Z,62.00
2018-07-29T03:47:00.457Z,61.70
2018-07-29T03:48:02.693Z,61.50
2018-07-29T03:49:04.954Z,61.10
2018-07-29T03:50:07.217Z,61.10
2018-07-29T03:51:09.446Z,61.20
2018-07-29T03:52:11.714Z,61.70
2018-07-29T03:53:13.966Z,61.60
2018-07-29T03:54:16.246Z,61.60
2018-07-29T03:55:18.478Z,61.90
2018-07-29T03:56:20.731Z,61.80
2018-07-29T03:57:22.965Z,61.80
2018-07-29T03:58:25.201Z,62.00
2018-07-29T03:59:27.449Z,61.90
2018-07-29T04:00:29.665Z,62.10
2018-07-29T04:01:31.909Z,62.00
2018-07-29T04:02:34.149Z,62.00
2018-07-29T04:03:36.333Z,62.10
2018-07-29T04:04:38.566Z,62.10
2018-07-29T04:05:40.802Z,62.30
2018-07-29T04:06:43.025Z,62.50
2018-07-29T04:07:45.229Z,62.40
2018-07-29T04:08:47.429Z,62.40
2018-07-29T04:09:49.650Z,62.60
2018-07-29T04:10:51.887Z,62.20
2018-07-29T04:11:54.184Z,62.10
2018-07-29T04:12:56.357Z,62.10
2018-07-29T04:13:58.582Z,62.00
2018-07-29T04:15:00.786Z,61.80
2018-07-29T04:16:03.186Z,61.80
2018-07-29T04:17:05.420Z,62.00
2018-07-29T04:18:07.625Z,61.90
2018-07-29T04:19:09.845Z,61.70
2018-07-29T04:20:12.073Z,62.40
2018-07-29T04:21:14.289Z,61.50
2018-07-29T04:22:16.495Z,61.20
2018-07-29T04:23:18.722Z,61.90
2018-07-29T04:25:23.193Z,61.20
2018-07-29T04:26:25.523Z,61.20
2018-07-29T04:27:27.654Z,61.10
2018-07-29T04:28:29.853Z,61.20
2018-07-29T04:29:32.097Z,62.00
2018-07-29T04:30:34.302Z,61.20
2018-07-29T04:31:36.541Z,61.20
2018-07-29T04:32:38.734Z,61.20
2018-07-29T04:33:40.934Z,61.20
2018-07-29T04:34:43.145Z,61.20
2018-07-29T04:35:45.369Z,61.20
2018-07-29T04:36:47.585Z,61.20
2018-07-29T04:37:49.812Z,61.30
2018-07-29T04:38:52.030Z,61.20
2018-07-29T04:39:54.248Z,61.30
2018-07-29T04:40:56.463Z,61.50
2018-07-29T04:41:58.677Z,61.60
2018-07-29T04:43:00.908Z,61.80
2018-07-29T04:44:03.151Z,61.80
2018-07-29T04:45:05.410Z,61.90
2018-07-29T04:46:07.650Z,62.10
2018-07-29T04:47:09.846Z,62.00
2018-07-29T04:48:12.061Z,62.10
2018-07-29T04:49:14.265Z,62.10
2018-07-29T04:50:16.462Z,61.80
2018-07-29T04:51:18.697Z,61.70
2018-07-29T04:52:20.915Z,61.70
2018-07-29T04:53:23.158Z,61.80
2018-07-29T04:54:25.404Z,61.70
2018-07-29T04:55:27.593Z,62.10
2018-07-29T04:56:29.810Z,62.30
2018-07-29T04:57:32.082Z,62.40
2018-07-29T04:59:36.550Z,62.60
2018-07-29T05:00:38.815Z,62.40
2018-07-29T05:01:41.035Z,62.30
2018-07-29T05:02:43.232Z,62.30
2018-07-29T05:03:45.422Z,62.70
2018-07-29T05:04:47.649Z,62.90
2018-07-29T05:05:49.873Z,62.90
2018-07-29T05:06:52.106Z,63.00
2018-07-29T05:08:56.549Z,63.10
2018-07-29T05:09:58.782Z,62.90
2018-07-29T05:11:01.027Z,63.00
2018-07-29T05:12:03.270Z,63.20
2018-07-29T05:13:05.538Z,63.00
2018-07-29T05:14:07.752Z,63.10
2018-07-29T05:15:09.970Z,63.50
2018-07-29T05:16:12.167Z,63.40
2018-07-29T05:17:14.417Z,63.40
2018-07-29T05:18:16.645Z,63.40
2018-07-29T05:19:18.894Z,63.80
2018-07-29T05:20:21.105Z,63.80
2018-07-29T05:21:23.353Z,64.30
2018-07-29T05:22:25.602Z,64.40
2018-07-29T05:23:27.838Z,64.30
2018-07-29T05:24:30.086Z,63.80
2018-07-29T05:25:32.301Z,64.10
2018-07-29T05:26:34.578Z,63.90
2018-07-29T05:27:36.786Z,63.70
2018-07-29T05:28:38.986Z,63.60
2018-07-29T05:29:41.225Z,64.10
2018-07-29T05:30:43.445Z,63.90
2018-07-29T05:31:45.682Z,63.30
2018-07-29T05:32:47.893Z,63.10
2018-07-29T05:33:50.110Z,62.70
2018-07-29T05:34:52.345Z,62.70
2018-07-29T05:35:54.594Z,62.70
2018-07-29T05:36:56.849Z,62.70
2018-07-29T05:37:59.078Z,62.40
2018-07-29T05:39:01.278Z,62.40
2018-07-29T05:40:03.933Z,62.50
2018-07-29T05:41:06.186Z,62.70
2018-07-29T05:42:08.430Z,62.40
2018-07-29T05:44:12.901Z,62.90
2018-07-29T05:45:15.144Z,62.90
2018-07-29T05:46:17.374Z,62.90
2018-07-29T05:47:19.802Z,62.80
2018-07-29T05:48:22.029Z,63.20
2018-07-29T05:49:24.270Z,62.90
2018-07-29T05:50:26.501Z,62.90
2018-07-29T05:51:28.714Z,62.80
2018-07-29T05:52:31.097Z,62.70
2018-07-29T05:53:33.339Z,62.50
2018-07-29T05:54:35.609Z,62.50
2018-07-29T05:55:37.851Z,62.40
2018-07-29T05:57:42.362Z,62.80
2018-07-29T05:58:44.614Z,62.70
2018-07-29T05:59:46.846Z,63.10
2018-07-29T06:00:49.102Z,63.00
2018-07-29T06:02:53.574Z,62.10
2018-07-29T06:03:55.778Z,61.90
2018-07-29T06:04:57.982Z,62.30
2018-07-29T06:06:00.218Z,62.60
2018-07-29T06:07:02.502Z,62.50
2018-07-29T06:08:04.867Z,62.10
2018-07-29T06:09:07.862Z,62.40
2018-07-29T06:10:10.101Z,62.00
2018-07-29T06:11:12.346Z,61.80
2018-07-29T06:12:14.626Z,62.40
2018-07-29T06:13:16.823Z,62.40
2018-07-29T06:14:19.100Z,62.30
2018-07-29T06:15:21.316Z,61.90
2018-07-29T06:16:23.543Z,61.70
2018-07-29T06:17:25.807Z,61.40
2018-07-29T06:18:28.002Z,61.50
2018-07-29T06:19:30.224Z,61.40
2018-07-29T06:20:32.447Z,61.30
2018-07-29T06:22:37.143Z,61.80
2018-07-29T06:23:39.378Z,61.60
2018-07-29T06:24:41.586Z,61.40
2018-07-29T06:25:43.817Z,61.30
2018-07-29T06:26:46.001Z,61.40
2018-07-29T06:27:48.202Z,61.40
2018-07-29T06:28:50.450Z,61.60
2018-07-29T06:29:52.669Z,61.50
2018-07-29T06:30:54.918Z,61.50
2018-07-29T06:31:57.142Z,61.20
2018-07-29T06:32:59.369Z,61.10
2018-07-29T06:34:01.608Z,60.70
2018-07-29T06:35:03.955Z,61.20
2018-07-29T06:36:06.169Z,60.90
2018-07-29T06:37:08.386Z,61.00
2018-07-29T06:38:10.614Z,60.90
2018-07-29T06:39:12.825Z,60.90
2018-07-29T06:41:17.310Z,61.60
2018-07-29T06:42:19.525Z,60.80
2018-07-29T06:43:21.733Z,60.90
2018-07-29T06:44:23.994Z,61.00
2018-07-29T06:45:26.210Z,60.80
2018-07-29T06:46:28.438Z,60.70
2018-07-29T06:48:32.877Z,60.80
2018-07-29T06:49:35.077Z,60.60
2018-07-29T06:50:37.298Z,60.40
2018-07-29T06:51:39.558Z,60.20
2018-07-29T06:52:41.806Z,60.40
2018-07-29T06:53:44.022Z,60.10
2018-07-29T06:54:46.225Z,60.00
2018-07-29T06:55:48.462Z,59.80
2018-07-29T06:56:50.685Z,59.60
2018-07-29T06:57:52.898Z,59.20
2018-07-29T06:58:55.165Z,59.20
2018-07-29T06:59:57.404Z,59.20
2018-07-29T07:00:59.642Z,59.40
2018-07-29T07:02:01.867Z,59.50
2018-07-29T07:03:04.130Z,59.40
2018-07-29T07:04:06.330Z,59.10
2018-07-29T07:05:08.602Z,58.80
2018-07-29T07:06:10.833Z,58.60
2018-07-29T07:07:13.241Z,58.40
2018-07-29T07:09:17.708Z,58.00
2018-07-29T07:10:20.018Z,58.10
2018-07-29T07:11:22.185Z,57.80
2018-07-29T07:12:24.431Z,57.60
2018-07-29T07:13:26.655Z,57.90
2018-07-29T07:14:28.891Z,57.80
2018-07-29T07:15:31.092Z,57.50
2018-07-29T07:16:33.307Z,57.40
2018-07-29T07:17:35.534Z,57.40
2018-07-29T07:18:37.742Z,57.50
2018-07-29T07:19:39.973Z,57.20
2018-07-29T07:20:42.278Z,57.00
2018-07-29T07:21:44.562Z,57.20
2018-07-29T07:22:46.795Z,57.10
2018-07-29T07:23:49.003Z,57.20
2018-07-29T07:24:51.261Z,57.10
2018-07-29T07:25:53.509Z,57.20
2018-07-29T07:26:55.818Z,57.20
2018-07-29T07:27:58.049Z,57.40
2018-07-29T07:29:00.306Z,57.20
2018-07-29T07:30:02.541Z,57.50
2018-07-29T07:31:04.819Z,57.60
2018-07-29T07:32:07.025Z,57.60
2018-07-29T07:33:09.262Z,57.40
2018-07-29T07:34:11.558Z,57.30
2018-07-29T07:35:13.786Z,57.40
2018-07-29T07:36:16.379Z,57.40
2018-07-29T07:37:18.718Z,57.50
2018-07-29T07:38:20.943Z,57.40
2018-07-29T07:39:23.157Z,57.30
2018-07-29T07:40:25.363Z,57.00
2018-07-29T07:41:27.730Z,56.70
2018-07-29T07:42:30.009Z,56.70
2018-07-29T07:43:32.240Z,57.00
2018-07-29T07:44:34.503Z,56.90
2018-07-29T07:45:36.726Z,57.00
2018-07-29T07:46:38.938Z,57.00
2018-07-29T07:47:41.145Z,56.90
2018-07-29T07:48:43.384Z,56.80
2018-07-29T07:49:45.617Z,56.80
2018-07-29T07:50:47.859Z,56.70
2018-07-29T07:51:50.202Z,56.70
2018-07-29T07:52:52.457Z,56.80
2018-07-29T07:53:54.685Z,57.50
2018-07-29T07:54:56.920Z,57.10
2018-07-29T07:55:59.130Z,56.40
2018-07-29T07:57:01.383Z,56.50
2018-07-29T07:58:03.649Z,56.40
2018-07-29T07:59:05.861Z,57.20
2018-07-29T08:00:08.118Z,57.00
2018-07-29T08:01:10.430Z,57.00
2018-07-29T08:02:12.638Z,56.90
2018-07-29T08:04:17.058Z,56.10
2018-07-29T08:05:19.301Z,56.00
2018-07-29T08:06:21.550Z,56.10
2018-07-29T08:07:23.818Z,56.30
2018-07-29T08:08:26.079Z,56.30
2018-07-29T08:09:28.400Z,56.20
2018-07-29T08:10:30.552Z,56.10
2018-07-29T08:11:32.805Z,55.80
2018-07-29T08:12:35.047Z,56.00
2018-07-29T08:13:37.261Z,55.90
2018-07-29T08:14:39.487Z,55.90
2018-07-29T08:15:41.694Z,55.70
2018-07-29T08:16:43.934Z,56.00
2018-07-29T08:17:46.163Z,55.80
2018-07-29T08:18:48.358Z,55.90
2018-07-29T08:19:50.561Z,56.00
2018-07-29T08:20:52.819Z,55.70
2018-07-29T08:21:55.309Z,55.80
2018-07-29T08:22:57.544Z,55.70
2018-07-29T08:23:59.757Z,55.00
2018-07-29T08:25:01.962Z,54.40
2018-07-29T08:26:04.718Z,54.50
2018-07-29T08:27:06.921Z,54.50
2018-07-29T08:28:09.210Z,54.50
2018-07-29T08:29:11.366Z,54.50
2018-07-29T08:30:13.593Z,54.50
2018-07-29T08:31:15.806Z,53.80
2018-07-29T08:32:18.013Z,54.50
2018-07-29T08:33:20.238Z,53.70
2018-07-29T08:34:22.439Z,53.90
2018-07-29T08:35:24.689Z,53.80
2018-07-29T08:36:26.902Z,54.00
2018-07-29T08:37:29.112Z,54.10
2018-07-29T08:38:31.339Z,53.60
2018-07-29T08:39:33.553Z,53.80
2018-07-29T08:40:35.791Z,53.20
2018-07-29T08:41:38.042Z,53.30
2018-07-29T08:42:40.263Z,53.20
2018-07-29T08:43:42.618Z,53.20
2018-07-29T08:44:44.847Z,53.10
2018-07-29T08:46:49.343Z,53.40
2018-07-29T08:47:51.567Z,53.40
2018-07-29T08:48:53.845Z,53.50
2018-07-29T08:49:56.118Z,53.20
2018-07-29T08:50:58.333Z,53.50
2018-07-29T08:52:00.543Z,54.00
2018-07-29T08:53:02.790Z,53.00
2018-07-29T08:54:05.019Z,52.90
2018-07-29T08:55:07.258Z,53.00
2018-07-29T08:56:09.480Z,53.30
2018-07-29T08:57:11.716Z,53.60
2018-07-29T08:58:13.998Z,53.40
2018-07-29T08:59:16.194Z,53.60
2018-07-29T09:00:18.433Z,53.80
2018-07-29T09:02:22.866Z,53.40
2018-07-29T09:03:25.074Z,53.40
2018-07-29T09:04:27.282Z,53.00
2018-07-29T09:05:29.499Z,53.10
2018-07-29T09:06:31.753Z,52.70
2018-07-29T09:07:34.073Z,52.70
2018-07-29T09:08:36.370Z,52.50
2018-07-29T09:09:38.704Z,52.50
2018-07-29T09:10:41.006Z,52.10
2018-07-29T09:11:43.207Z,52.30
2018-07-29T09:12:45.434Z,52.10
2018-07-29T09:13:47.642Z,52.20
2018-07-29T09:14:49.851Z,52.30
2018-07-29T09:15:52.167Z,52.80
2018-07-29T09:16:54.402Z,52.60
2018-07-29T09:17:56.622Z,52.60
2018-07-29T09:18:58.909Z,52.10
2018-07-29T09:20:01.153Z,51.80
2018-07-29T09:21:04.187Z,51.90
2018-07-29T09:22:06.406Z,51.90
2018-07-29T09:23:08.614Z,51.30
2018-07-29T09:24:10.973Z,50.70
2018-07-29T09:25:13.199Z,50.70
2018-07-29T09:26:15.413Z,50.80
2018-07-29T09:27:17.611Z,50.90
2018-07-29T09:28:19.862Z,50.40
2018-07-29T09:29:22.105Z,50.80
2018-07-29T09:31:26.596Z,51.90
2018-07-29T09:32:28.885Z,51.00
2018-07-29T09:33:31.134Z,51.00
2018-07-29T09:34:33.362Z,49.30
2018-07-29T09:35:35.565Z,50.20
2018-07-29T09:36:37.803Z,49.90
2018-07-29T09:37:40.011Z,49.20
2018-07-29T09:38:42.222Z,48.60
2018-07-29T09:39:44.433Z,47.60
2018-07-29T09:40:46.745Z,46.70
2018-07-29T09:41:48.942Z,46.80
2018-07-29T09:42:51.172Z,47.10
2018-07-29T09:43:53.419Z,46.80
2018-07-29T09:44:55.605Z,46.80
2018-07-29T09:45:57.815Z,46.90
2018-07-29T09:47:00.063Z,46.90
2018-07-29T09:48:02.334Z,46.20
2018-07-29T09:49:04.619Z,46.20
2018-07-29T09:50:06.863Z,45.80
2018-07-29T09:51:09.084Z,46.20
2018-07-29T09:52:11.309Z,46.40
2018-07-29T09:53:13.524Z,46.50
2018-07-29T09:54:15.749Z,46.00
2018-07-29T09:55:18.005Z,46.20
2018-07-29T09:56:20.202Z,45.90
2018-07-29T09:57:22.465Z,46.60
2018-07-29T09:58:24.693Z,46.80
2018-07-29T09:59:26.905Z,46.80
2018-07-29T10:00:34.800Z,46.80
2018-07-29T10:01:37.002Z,46.80
2018-07-29T10:02:39.265Z,47.40
2018-07-29T10:03:42.193Z,46.80
2018-07-29T10:04:44.441Z,46.80
2018-07-29T10:05:46.645Z,46.80
2018-07-29T10:07:51.155Z,47.80
2018-07-29T10:08:53.396Z,47.10
2018-07-29T10:09:55.639Z,47.20
2018-07-29T10:10:57.882Z,46.80
2018-07-29T10:12:00.246Z,46.80
2018-07-29T10:13:02.481Z,46.80
2018-07-29T10:14:05.073Z,47.00
2018-07-29T10:15:07.309Z,46.70
2018-07-29T10:16:09.522Z,45.80
2018-07-29T10:17:11.746Z,46.10
2018-07-29T10:18:13.970Z,45.90
2018-07-29T10:19:16.207Z,45.80
2018-07-29T10:20:18.452Z,46.50
2018-07-29T10:21:20.669Z,46.50
2018-07-29T10:22:22.890Z,46.40
2018-07-29T10:23:25.101Z,46.00
2018-07-29T10:24:27.298Z,45.60
2018-07-29T10:25:29.518Z,45.40
2018-07-29T10:26:31.722Z,46.20
2018-07-29T10:27:33.944Z,45.70
2018-07-29T10:28:36.149Z,45.70
2018-07-29T10:30:40.645Z,46.40
2018-07-29T10:31:42.866Z,46.40
2018-07-29T10:32:45.079Z,45.70
2018-07-29T10:33:47.269Z,45.60
2018-07-29T10:34:49.489Z,45.40
2018-07-29T10:35:51.719Z,45.20
2018-07-29T10:36:53.933Z,45.60
2018-07-29T10:37:56.126Z,44.80
2018-07-29T10:38:58.329Z,44.80
2018-07-29T10:40:00.530Z,45.10
2018-07-29T10:41:02.802Z,44.60
2018-07-29T10:42:05.038Z,44.40
2018-07-29T10:43:07.283Z,45.20
2018-07-29T10:44:09.530Z,45.20
2018-07-29T10:45:11.829Z,45.10
2018-07-29T10:46:14.190Z,44.90
2018-07-29T10:47:16.413Z,44.90
2018-07-29T10:48:18.625Z,44.60
2018-07-29T10:49:20.862Z,45.20
2018-07-29T10:50:23.066Z,44.60
2018-07-29T10:51:25.277Z,44.50
2018-07-29T10:52:27.506Z,44.50
2018-07-29T10:53:29.754Z,44.70
2018-07-29T10:54:31.941Z,44.50
2018-07-29T10:55:34.166Z,44.30
2018-07-29T10:56:36.382Z,44.10
2018-07-29T10:57:38.634Z,44.20
2018-07-29T10:58:40.944Z,43.60
2018-07-29T10:59:43.105Z,44.00
2018-07-29T11:00:45.338Z,43.70
2018-07-29T11:02:49.801Z,42.80
2018-07-29T11:03:52.084Z,42.70
2018-07-29T11:04:54.308Z,43.10
2018-07-29T11:05:56.505Z,42.90
2018-07-29T11:06:58.765Z,43.20
2018-07-29T11:08:00.978Z,42.40
2018-07-29T11:09:04.802Z,42.50
2018-07-29T11:10:07.315Z,42.60
2018-07-29T11:11:09.573Z,43.50
2018-07-29T11:12:11.839Z,42.30
2018-07-29T11:13:14.043Z,43.20
2018-07-29T11:15:18.554Z,42.70
2018-07-29T11:16:20.777Z,42.50
2018-07-29T11:17:22.987Z,42.80
2018-07-29T11:18:25.206Z,42.10
2018-07-29T11:19:27.492Z,42.20
2018-07-29T11:20:29.713Z,42.80
2018-07-29T11:21:32.075Z,42.80
2018-07-29T11:22:34.438Z,42.80
2018-07-29T11:23:37.094Z,42.70
2018-07-29T11:24:39.281Z,43.10
2018-07-29T11:25:41.526Z,43.20
2018-07-29T11:26:43.750Z,43.40
2018-07-29T11:27:45.951Z,43.10
2018-07-29T11:28:48.210Z,43.20
2018-07-29T11:29:50.437Z,43.10
2018-07-29T11:30:52.640Z,43.50
2018-07-29T11:31:54.868Z,43.10
2018-07-29T11:32:57.128Z,43.00
2018-07-29T11:33:59.375Z,42.90
2018-07-29T11:35:01.615Z,43.00
2018-07-29T11:36:03.856Z,42.80
2018-07-29T11:37:06.014Z,43.00
2018-07-29T11:38:08.222Z,42.70
2018-07-29T11:39:10.993Z,43.00
2018-07-29T11:40:13.218Z,42.80
2018-07-29T11:41:15.438Z,42.60
2018-07-29T11:42:17.674Z,42.20
2018-07-29T11:43:19.881Z,42.70
2018-07-29T11:44:22.102Z,42.40
2018-07-29T11:45:24.343Z,40.10
2018-07-29T11:46:26.538Z,40.10
2018-07-29T11:47:28.730Z,40.00
2018-07-29T11:48:30.974Z,40.00
2018-07-29T11:49:33.201Z,39.00
2018-07-29T11:50:35.439Z,39.70
2018-07-29T11:51:37.688Z,39.80
2018-07-29T11:52:39.895Z,40.10
2018-07-29T11:53:42.108Z,40.90
2018-07-29T11:54:44.346Z,40.50
2018-07-29T11:55:46.530Z,39.80
2018-07-29T11:56:48.737Z,40.30
2018-07-29T11:57:51.038Z,39.20
2018-07-29T11:58:53.221Z,39.80
2018-07-29T11:59:55.406Z,39.30
2018-07-29T12:00:57.644Z,39.00
2018-07-29T12:01:59.873Z,39.10
2018-07-29T12:03:02.165Z,39.10
2018-07-29T12:04:04.404Z,38.60
2018-07-29T12:05:06.607Z,39.70
2018-07-29T12:06:08.854Z,39.40
2018-07-29T12:07:11.122Z,39.10
2018-07-29T12:08:13.334Z,38.70
2018-07-29T12:09:15.533Z,38.50
2018-07-29T12:10:17.803Z,37.20
2018-07-29T12:11:20.582Z,36.40
2018-07-29T12:12:22.782Z,36.20
2018-07-29T12:13:25.014Z,37.30
2018-07-29T12:14:27.207Z,37.50
2018-07-29T12:15:29.385Z,37.20
2018-07-29T12:16:31.593Z,36.70
2018-07-29T12:17:33.802Z,36.80
2018-07-29T12:18:35.997Z,37.00
2018-07-29T12:19:38.306Z,37.10
2018-07-29T12:20:40.581Z,37.20
2018-07-29T12:21:42.850Z,37.30
2018-07-29T12:22:45.071Z,37.30
2018-07-29T12:23:47.275Z,37.30
2018-07-29T12:24:49.545Z,37.20
2018-07-29T12:25:51.751Z,37.70
2018-07-29T12:26:53.973Z,37.40
2018-07-29T12:27:56.291Z,37.20
2018-07-29T12:28:58.389Z,37.20
2018-07-29T12:30:00.637Z,37.50
2018-07-29T12:31:02.852Z,37.70
2018-07-29T12:32:05.086Z,37.70
2018-07-29T12:33:07.285Z,37.40
2018-07-29T12:34:09.493Z,37.40
2018-07-29T12:35:11.731Z,36.90
2018-07-29T12:36:13.901Z,36.20
2018-07-29T12:37:16.518Z,36.10
2018-07-29T12:38:18.754Z,36.60
2018-07-29T12:39:20.987Z,36.60
2018-07-29T12:40:23.198Z,36.70
2018-07-29T12:41:25.394Z,36.70
2018-07-29T12:42:27.638Z,36.70
2018-07-29T12:43:29.806Z,36.40
2018-07-29T12:44:31.993Z,36.60
2018-07-29T12:45:34.174Z,36.80
2018-07-29T12:46:36.402Z,36.30
2018-07-29T12:47:38.605Z,35.20
2018-07-29T12:48:40.805Z,35.20
2018-07-29T12:49:43.116Z,35.60
2018-07-29T12:50:45.317Z,35.20
2018-07-29T12:51:47.499Z,35.20
2018-07-29T12:52:49.837Z,35.30
2018-07-29T12:53:52.051Z,35.40
2018-07-29T12:54:54.391Z,34.00
2018-07-29T12:55:56.665Z,34.00
2018-07-29T12:56:58.873Z,34.80
2018-07-29T12:58:01.214Z,35.30
2018-07-29T12:59:03.403Z,35.00
2018-07-29T13:00:05.654Z,34.90
2018-07-29T13:01:07.877Z,34.30
2018-07-29T13:02:10.111Z,34.00
2018-07-29T13:04:14.625Z,34.30
2018-07-29T13:05:16.849Z,34.20
2018-07-29T13:06:19.072Z,34.30
2018-07-29T13:07:21.285Z,34.50
2018-07-29T13:08:23.522Z,34.30
2018-07-29T13:09:25.737Z,34.20
2018-07-29T13:10:27.982Z,33.70
2018-07-29T13:11:30.171Z,33.80
2018-07-29T13:12:32.401Z,33.90
2018-07-29T13:13:34.614Z,34.00
2018-07-29T13:14:36.833Z,33.30
2018-07-29T13:15:39.058Z,33.40
2018-07-29T13:16:42.082Z,33.60
2018-07-29T13:17:44.308Z,32.90
2018-07-29T13:18:46.526Z,33.10
2018-07-29T13:19:48.729Z,33.00
2018-07-29T13:21:53.149Z,33.10
2018-07-29T13:23:57.609Z,32.30
2018-07-29T13:24:59.862Z,31.30
2018-07-29T13:26:02.120Z,31.30
2018-07-29T13:27:04.382Z,31.20
2018-07-29T13:28:06.597Z,32.00
2018-07-29T13:29:08.814Z,32.00
2018-07-29T13:30:11.079Z,32.30
2018-07-29T13:31:13.305Z,31.30
2018-07-29T13:32:15.628Z,31.30
2018-07-29T13:34:20.052Z,31.10
2018-07-29T13:35:22.294Z,30.90
2018-07-29T13:36:24.493Z,31.50
2018-07-29T13:37:26.732Z,31.30
2018-07-29T13:38:28.905Z,31.90
2018-07-29T13:39:31.154Z,31.20
2018-07-29T13:41:35.641Z,31.20
2018-07-29T13:42:37.925Z,32.00
2018-07-29T13:43:40.117Z,31.90
2018-07-29T13:44:42.350Z,31.30
2018-07-29T13:46:46.825Z,30.30
2018-07-29T13:47:49.041Z,30.20
2018-07-29T13:48:51.298Z,30.30
2018-07-29T13:49:53.522Z,29.80
2018-07-29T13:50:55.758Z,28.50
2018-07-29T13:51:58.049Z,28.40
2018-07-29T13:53:00.275Z,28.80
2018-07-29T13:54:02.688Z,29.10
2018-07-29T13:56:07.830Z,29.60
2018-07-29T13:57:10.026Z,29.70
2018-07-29T13:58:12.244Z,29.40
2018-07-29T13:59:14.486Z,29.10
2018-07-29T14:00:18.137Z,28.80
2018-07-29T14:01:20.406Z,29.00